sensor_id;sensor_type;location;lat;lon;timestamp;temperature;humidity
8172;DHT22;4127;47.908;10.850;2023-06-10T08:15:37;20.20;99.90
8172;DHT22;4127;47.908;10.850;2023-06-10T08:18:04;20.40;99.90
8172;DHT22;4127;47.908;10.850;2023-06-10T08:20:31;20.90;99.90
8172;DHT22;4127;47.908;10.850;2023-06-10T08:22:59;21.00;99.90
8172;DHT22;4127;47.908;10.850;2023-06-10T08:25:25;20.90;99.90
8172;DHT22;4127;47.908;10.850;2023-06-10T08:27:52;20.50;99.90
8172;DHT22;4127;47.908;10.850;2023-06-10T08:30:23;20.60;99.90
8172;DHT22;4127;47.908;10.850;2023-06-10T08:32:50;21.00;99.90
8172;DHT22;4127;47.908;10.850;2023-06-10T08:35:18;21.10;99.90
8172;DHT22;4127;47.908;10.850;2023-06-10T08:37:45;21.60;99.90
8172;DHT22;4127;47.908;10.850;2023-06-10T08:40:12;21.70;99.90
8172;DHT22;4127;47.908;10.850;2023-06-10T08:42:44;22.10;99.90
8172;DHT22;4127;47.908;10.850;2023-06-10T08:45:16;22.10;99.90
8172;DHT22;4127;47.908;10.850;2023-06-10T08:47:45;21.40;99.90
8172;DHT22;4127;47.908;10.850;2023-06-10T08:50:16;21.40;99.90
8172;DHT22;4127;47.908;10.850;2023-06-10T08:52:44;21.50;99.90
8172;DHT22;4127;47.908;10.850;2023-06-10T08:55:37;21.60;99.90
8172;DHT22;4127;47.908;10.850;2023-06-10T08:58:04;22.20;99.90
8172;DHT22;4127;47.908;10.850;2023-06-10T09:00:32;22.00;99.90
8172;DHT22;4127;47.908;10.850;2023-06-10T09:02:59;22.10;99.90
8172;DHT22;4127;47.908;10.850;2023-06-10T09:05:33;22.50;99.90
8172;DHT22;4127;47.908;10.850;2023-06-10T09:08:00;22.80;99.90
8172;DHT22;4127;47.908;10.850;2023-06-10T09:10:27;23.40;99.30
8172;DHT22;4127;47.908;10.850;2023-06-10T09:12:54;23.70;99.10
8172;DHT22;4127;47.908;10.850;2023-06-10T09:15:21;23.40;97.80
8172;DHT22;4127;47.908;10.850;2023-06-10T09:17:48;23.20;98.20
8172;DHT22;4127;47.908;10.850;2023-06-10T09:20:15;23.40;96.90
8172;DHT22;4127;47.908;10.850;2023-06-10T09:22:43;23.60;96.40
8172;DHT22;4127;47.908;10.850;2023-06-10T09:25:11;23.00;98.20
8172;DHT22;4127;47.908;10.850;2023-06-10T09:30:27;22.20;98.70
8172;DHT22;4127;47.908;10.850;2023-06-10T09:32:56;22.80;99.50
8172;DHT22;4127;47.908;10.850;2023-06-10T09:35:24;23.00;96.60
8172;DHT22;4127;47.908;10.850;2023-06-10T09:37:53;23.60;96.50
8172;DHT22;4127;47.908;10.850;2023-06-10T09:40:20;24.20;94.80
8172;DHT22;4127;47.908;10.850;2023-06-10T09:42:56;23.80;96.50
8172;DHT22;4127;47.908;10.850;2023-06-10T09:45:27;23.30;96.70
8172;DHT22;4127;47.908;10.850;2023-06-10T09:47:56;23.20;95.30
8172;DHT22;4127;47.908;10.850;2023-06-10T09:50:22;23.50;94.50
8172;DHT22;4127;47.908;10.850;2023-06-10T09:52:50;23.90;95.20
8172;DHT22;4127;47.908;10.850;2023-06-10T09:55:19;24.40;94.20
8172;DHT22;4127;47.908;10.850;2023-06-10T09:57:49;24.40;93.90
8172;DHT22;4127;47.908;10.850;2023-06-10T10:00:16;24.80;93.90
8172;DHT22;4127;47.908;10.850;2023-06-10T10:02:51;25.20;92.30
8172;DHT22;4127;47.908;10.850;2023-06-10T10:05:20;24.70;93.90
8172;DHT22;4127;47.908;10.850;2023-06-10T10:07:47;24.00;94.40
8172;DHT22;4127;47.908;10.850;2023-06-10T10:10:15;23.10;95.50
8172;DHT22;4127;47.908;10.850;2023-06-10T10:12:46;23.40;94.80
8172;DHT22;4127;47.908;10.850;2023-06-10T10:15:15;23.20;94.80
8172;DHT22;4127;47.908;10.850;2023-06-10T10:18:00;22.80;95.30
8172;DHT22;4127;47.908;10.850;2023-06-10T10:20:31;22.00;97.40
8172;DHT22;4127;47.908;10.850;2023-06-10T10:22:59;21.90;97.90
8172;DHT22;4127;47.908;10.850;2023-06-10T10:25:34;22.20;98.10
8172;DHT22;4127;47.908;10.850;2023-06-10T10:28:12;22.70;96.00
8172;DHT22;4127;47.908;10.850;2023-06-10T10:30:52;23.10;95.40
8172;DHT22;4127;47.908;10.850;2023-06-10T10:33:23;23.20;94.60
8172;DHT22;4127;47.908;10.850;2023-06-10T10:35:54;23.70;94.20
8172;DHT22;4127;47.908;10.850;2023-06-10T10:38:21;22.90;94.80
8172;DHT22;4127;47.908;10.850;2023-06-10T10:40:49;22.40;94.00
8172;DHT22;4127;47.908;10.850;2023-06-10T10:43:17;22.80;94.60
8172;DHT22;4127;47.908;10.850;2023-06-10T10:46:01;23.00;95.40
8172;DHT22;4127;47.908;10.850;2023-06-10T10:48:35;22.60;95.10
8172;DHT22;4127;47.908;10.850;2023-06-10T10:51:03;22.40;94.00
8172;DHT22;4127;47.908;10.850;2023-06-10T10:53:30;22.90;94.40
8172;DHT22;4127;47.908;10.850;2023-06-10T10:56:16;23.40;93.40
8172;DHT22;4127;47.908;10.850;2023-06-10T10:59:04;23.90;91.60
8172;DHT22;4127;47.908;10.850;2023-06-10T11:01:44;24.40;93.30
8172;DHT22;4127;47.908;10.850;2023-06-10T11:04:13;24.50;90.40
8172;DHT22;4127;47.908;10.850;2023-06-10T11:06:52;24.60;88.90
8172;DHT22;4127;47.908;10.850;2023-06-10T11:09:27;25.00;90.60
8172;DHT22;4127;47.908;10.850;2023-06-10T11:11:58;24.80;91.30
8172;DHT22;4127;47.908;10.850;2023-06-10T11:14:27;23.70;90.10
8172;DHT22;4127;47.908;10.850;2023-06-10T11:16:59;24.50;88.20
8172;DHT22;4127;47.908;10.850;2023-06-10T11:19:37;24.70;91.20
8172;DHT22;4127;47.908;10.850;2023-06-10T11:22:08;24.10;91.50
8172;DHT22;4127;47.908;10.850;2023-06-10T11:24:37;24.60;92.60
8172;DHT22;4127;47.908;10.850;2023-06-10T11:27:23;25.00;92.50
8172;DHT22;4127;47.908;10.850;2023-06-10T11:32:23;25.10;91.00
8172;DHT22;4127;47.908;10.850;2023-06-10T11:34:53;24.60;91.10
8172;DHT22;4127;47.908;10.850;2023-06-10T11:37:21;24.30;92.10
8172;DHT22;4127;47.908;10.850;2023-06-10T11:39:52;24.40;91.50
8172;DHT22;4127;47.908;10.850;2023-06-10T11:42:20;24.00;91.20
8172;DHT22;4127;47.908;10.850;2023-06-10T11:44:52;23.70;91.50
8172;DHT22;4127;47.908;10.850;2023-06-10T11:47:19;24.10;92.80
8172;DHT22;4127;47.908;10.850;2023-06-10T11:49:55;23.80;92.40
8172;DHT22;4127;47.908;10.850;2023-06-10T11:52:30;23.70;92.50
8172;DHT22;4127;47.908;10.850;2023-06-10T11:55:00;24.10;91.70
8172;DHT22;4127;47.908;10.850;2023-06-10T11:57:27;24.30;91.40
8172;DHT22;4127;47.908;10.850;2023-06-10T11:59:54;24.60;91.30
8172;DHT22;4127;47.908;10.850;2023-06-10T12:02:21;24.90;91.20
8172;DHT22;4127;47.908;10.850;2023-06-10T12:04:49;24.30;90.80
8172;DHT22;4127;47.908;10.850;2023-06-10T12:07:19;23.90;92.40
8172;DHT22;4127;47.908;10.850;2023-06-10T12:09:46;23.90;93.30
8172;DHT22;4127;47.908;10.850;2023-06-10T12:12:13;24.30;92.10
8172;DHT22;4127;47.908;10.850;2023-06-10T12:14:57;24.40;90.70
8172;DHT22;4127;47.908;10.850;2023-06-10T12:20:07;24.80;92.40
8172;DHT22;4127;47.908;10.850;2023-06-10T12:22:42;25.10;91.80
8172;DHT22;4127;47.908;10.850;2023-06-10T12:25:10;24.50;91.70
8172;DHT22;4127;47.908;10.850;2023-06-10T12:27:41;24.30;92.10
8172;DHT22;4127;47.908;10.850;2023-06-10T12:30:22;24.10;90.90
8172;DHT22;4127;47.908;10.850;2023-06-10T12:32:50;24.20;91.50
8172;DHT22;4127;47.908;10.850;2023-06-10T12:35:28;24.20;92.60
8172;DHT22;4127;47.908;10.850;2023-06-10T12:37:59;24.00;90.80
8172;DHT22;4127;47.908;10.850;2023-06-10T12:40:34;24.50;91.70
8172;DHT22;4127;47.908;10.850;2023-06-10T12:43:03;24.70;91.30
8172;DHT22;4127;47.908;10.850;2023-06-10T12:45:34;24.10;91.30
8172;DHT22;4127;47.908;10.850;2023-06-10T12:48:12;24.00;91.20
8172;DHT22;4127;47.908;10.850;2023-06-10T12:50:40;23.80;90.50
8172;DHT22;4127;47.908;10.850;2023-06-10T12:53:08;24.30;91.20
8172;DHT22;4127;47.908;10.850;2023-06-10T12:55:35;24.60;90.20
8172;DHT22;4127;47.908;10.850;2023-06-10T12:58:03;24.70;89.90
8172;DHT22;4127;47.908;10.850;2023-06-10T13:00:30;25.20;88.60
8172;DHT22;4127;47.908;10.850;2023-06-10T13:02:59;24.80;90.40
8172;DHT22;4127;47.908;10.850;2023-06-10T13:05:27;25.10;90.50
8172;DHT22;4127;47.908;10.850;2023-06-10T13:07:54;25.00;88.00
8172;DHT22;4127;47.908;10.850;2023-06-10T13:10:21;24.90;89.90
8172;DHT22;4127;47.908;10.850;2023-06-10T13:12:52;25.10;87.50
8172;DHT22;4127;47.908;10.850;2023-06-10T13:15:19;25.00;85.60
8172;DHT22;4127;47.908;10.850;2023-06-10T13:17:46;25.10;88.10
8172;DHT22;4127;47.908;10.850;2023-06-10T13:20:18;25.20;87.10
8172;DHT22;4127;47.908;10.850;2023-06-10T13:22:45;25.20;85.30
8172;DHT22;4127;47.908;10.850;2023-06-10T13:25:12;25.50;89.20
8172;DHT22;4127;47.908;10.850;2023-06-10T13:27:40;25.50;87.80
8172;DHT22;4127;47.908;10.850;2023-06-10T13:30:09;24.90;86.10
8172;DHT22;4127;47.908;10.850;2023-06-10T13:32:37;24.20;87.60
8172;DHT22;4127;47.908;10.850;2023-06-10T13:35:04;23.50;88.80
8172;DHT22;4127;47.908;10.850;2023-06-10T13:37:31;23.40;90.30
8172;DHT22;4127;47.908;10.850;2023-06-10T13:40:01;23.40;89.20
8172;DHT22;4127;47.908;10.850;2023-06-10T13:42:29;23.80;89.90
8172;DHT22;4127;47.908;10.850;2023-06-10T13:44:56;24.70;90.70
8172;DHT22;4127;47.908;10.850;2023-06-10T13:47:25;23.90;87.50
8172;DHT22;4127;47.908;10.850;2023-06-10T13:49:52;23.20;89.00
8172;DHT22;4127;47.908;10.850;2023-06-10T13:52:19;22.90;90.10
8172;DHT22;4127;47.908;10.850;2023-06-10T13:54:46;23.00;88.50
8172;DHT22;4127;47.908;10.850;2023-06-10T13:57:13;23.20;88.70
8172;DHT22;4127;47.908;10.850;2023-06-10T13:59:39;23.10;89.00
8172;DHT22;4127;47.908;10.850;2023-06-10T14:02:06;23.20;90.30
8172;DHT22;4127;47.908;10.850;2023-06-10T14:04:33;23.40;88.10
8172;DHT22;4127;47.908;10.850;2023-06-10T14:07:00;23.70;88.70
8172;DHT22;4127;47.908;10.850;2023-06-10T14:09:27;24.20;86.10
8172;DHT22;4127;47.908;10.850;2023-06-10T14:11:54;24.20;86.30
8172;DHT22;4127;47.908;10.850;2023-06-10T14:14:21;23.80;86.40
8172;DHT22;4127;47.908;10.850;2023-06-10T14:16:49;23.70;88.80
8172;DHT22;4127;47.908;10.850;2023-06-10T14:19:15;23.70;90.30
8172;DHT22;4127;47.908;10.850;2023-06-10T14:21:42;24.00;89.70
8172;DHT22;4127;47.908;10.850;2023-06-10T14:24:09;24.20;87.20
8172;DHT22;4127;47.908;10.850;2023-06-10T14:26:36;24.50;87.30
8172;DHT22;4127;47.908;10.850;2023-06-10T14:29:03;24.10;85.80
8172;DHT22;4127;47.908;10.850;2023-06-10T14:31:29;24.30;87.30
8172;DHT22;4127;47.908;10.850;2023-06-10T14:33:56;24.50;90.30
8172;DHT22;4127;47.908;10.850;2023-06-10T14:36:23;24.30;88.10
8172;DHT22;4127;47.908;10.850;2023-06-10T14:38:50;24.60;89.10
8172;DHT22;4127;47.908;10.850;2023-06-10T14:41:17;24.30;90.00
8172;DHT22;4127;47.908;10.850;2023-06-10T14:43:44;24.10;89.70
8172;DHT22;4127;47.908;10.850;2023-06-10T14:46:11;23.70;90.00
8172;DHT22;4127;47.908;10.850;2023-06-10T14:48:37;24.10;88.50
8172;DHT22;4127;47.908;10.850;2023-06-10T14:51:04;24.40;86.60
8172;DHT22;4127;47.908;10.850;2023-06-10T14:53:31;23.80;90.50
8172;DHT22;4127;47.908;10.850;2023-06-10T14:55:58;23.40;90.00
8172;DHT22;4127;47.908;10.850;2023-06-10T14:58:25;23.30;90.20
8172;DHT22;4127;47.908;10.850;2023-06-10T15:00:52;23.10;91.00
8172;DHT22;4127;47.908;10.850;2023-06-10T15:03:19;22.90;90.70
8172;DHT22;4127;47.908;10.850;2023-06-10T15:05:45;23.00;90.90
8172;DHT22;4127;47.908;10.850;2023-06-10T15:08:12;23.70;91.00
8172;DHT22;4127;47.908;10.850;2023-06-10T15:10:39;24.20;91.10
8172;DHT22;4127;47.908;10.850;2023-06-10T15:13:06;24.50;89.40
8172;DHT22;4127;47.908;10.850;2023-06-10T15:15:33;24.60;90.20
8172;DHT22;4127;47.908;10.850;2023-06-10T15:18:00;24.20;91.80
8172;DHT22;4127;47.908;10.850;2023-06-10T15:20:27;23.70;91.60
8172;DHT22;4127;47.908;10.850;2023-06-10T15:22:54;23.20;92.30
8172;DHT22;4127;47.908;10.850;2023-06-10T15:25:20;23.10;92.00
8172;DHT22;4127;47.908;10.850;2023-06-10T15:27:57;23.00;92.80
8172;DHT22;4127;47.908;10.850;2023-06-10T15:30:24;22.90;92.60
8172;DHT22;4127;47.908;10.850;2023-06-10T15:32:51;22.60;92.70
8172;DHT22;4127;47.908;10.850;2023-06-10T15:35:18;22.50;93.40
8172;DHT22;4127;47.908;10.850;2023-06-10T15:37:45;22.60;92.90
8172;DHT22;4127;47.908;10.850;2023-06-10T15:40:11;22.60;92.10
8172;DHT22;4127;47.908;10.850;2023-06-10T15:42:38;23.10;91.50
8172;DHT22;4127;47.908;10.850;2023-06-10T15:45:06;23.20;91.80
8172;DHT22;4127;47.908;10.850;2023-06-10T15:47:33;23.20;91.70
8172;DHT22;4127;47.908;10.850;2023-06-10T15:49:59;22.90;93.00
8172;DHT22;4127;47.908;10.850;2023-06-10T15:52:26;22.50;94.00
8172;DHT22;4127;47.908;10.850;2023-06-10T15:54:53;22.10;94.60
8172;DHT22;4127;47.908;10.850;2023-06-10T15:57:20;22.00;95.60
8172;DHT22;4127;47.908;10.850;2023-06-10T15:59:50;21.80;96.00
8172;DHT22;4127;47.908;10.850;2023-06-10T16:02:17;21.70;96.20
8172;DHT22;4127;47.908;10.850;2023-06-10T16:04:44;21.70;96.80
8172;DHT22;4127;47.908;10.850;2023-06-10T16:07:11;21.70;96.60
8172;DHT22;4127;47.908;10.850;2023-06-10T16:09:38;21.70;96.90
8172;DHT22;4127;47.908;10.850;2023-06-10T16:12:05;21.70;97.10
8172;DHT22;4127;47.908;10.850;2023-06-10T16:14:32;22.00;96.70
8172;DHT22;4127;47.908;10.850;2023-06-10T16:16:59;22.30;96.20
8172;DHT22;4127;47.908;10.850;2023-06-10T16:19:27;22.50;96.10
8172;DHT22;4127;47.908;10.850;2023-06-10T16:21:54;22.30;95.40
8172;DHT22;4127;47.908;10.850;2023-06-10T16:24:20;22.40;96.20
8172;DHT22;4127;47.908;10.850;2023-06-10T16:26:48;22.40;96.10
8172;DHT22;4127;47.908;10.850;2023-06-10T16:29:15;22.50;96.30
8172;DHT22;4127;47.908;10.850;2023-06-10T16:31:42;22.30;96.60
8172;DHT22;4127;47.908;10.850;2023-06-10T16:34:09;22.30;95.70
8172;DHT22;4127;47.908;10.850;2023-06-10T16:36:36;22.20;96.00
8172;DHT22;4127;47.908;10.850;2023-06-10T16:39:03;22.30;96.40
8172;DHT22;4127;47.908;10.850;2023-06-10T16:41:30;22.20;96.50
8172;DHT22;4127;47.908;10.850;2023-06-10T16:43:57;22.10;96.50
8172;DHT22;4127;47.908;10.850;2023-06-10T16:46:28;22.10;96.90
8172;DHT22;4127;47.908;10.850;2023-06-10T16:48:55;22.10;96.60
8172;DHT22;4127;47.908;10.850;2023-06-10T16:51:22;22.20;96.30
8172;DHT22;4127;47.908;10.850;2023-06-10T16:53:48;22.00;96.00
8172;DHT22;4127;47.908;10.850;2023-06-10T16:56:17;22.00;95.70
8172;DHT22;4127;47.908;10.850;2023-06-10T16:58:43;22.00;96.10
8172;DHT22;4127;47.908;10.850;2023-06-10T17:01:10;21.80;95.50
8172;DHT22;4127;47.908;10.850;2023-06-10T17:03:37;21.80;96.00
8172;DHT22;4127;47.908;10.850;2023-06-10T17:06:04;21.80;96.70
8172;DHT22;4127;47.908;10.850;2023-06-10T17:08:31;21.90;95.80
8172;DHT22;4127;47.908;10.850;2023-06-10T17:10:58;22.00;96.40
8172;DHT22;4127;47.908;10.850;2023-06-10T17:13:25;22.00;96.50
8172;DHT22;4127;47.908;10.850;2023-06-10T17:15:53;22.00;95.20
8172;DHT22;4127;47.908;10.850;2023-06-10T17:18:22;21.90;95.00
8172;DHT22;4127;47.908;10.850;2023-06-10T17:20:49;21.90;94.00
8172;DHT22;4127;47.908;10.850;2023-06-10T17:23:16;21.80;93.50
8172;DHT22;4127;47.908;10.850;2023-06-10T17:25:43;21.70;94.10
8172;DHT22;4127;47.908;10.850;2023-06-10T17:28:10;21.80;94.00
8172;DHT22;4127;47.908;10.850;2023-06-10T17:30:37;21.70;94.40
8172;DHT22;4127;47.908;10.850;2023-06-10T17:33:04;21.80;94.60
8172;DHT22;4127;47.908;10.850;2023-06-10T17:35:30;21.70;94.10
8172;DHT22;4127;47.908;10.850;2023-06-10T17:37:57;21.70;95.20
8172;DHT22;4127;47.908;10.850;2023-06-10T17:40:24;21.60;94.60
8172;DHT22;4127;47.908;10.850;2023-06-10T17:42:51;21.40;94.80
8172;DHT22;4127;47.908;10.850;2023-06-10T17:45:18;21.30;95.40
8172;DHT22;4127;47.908;10.850;2023-06-10T17:47:45;21.30;95.80
8172;DHT22;4127;47.908;10.850;2023-06-10T17:50:12;21.20;96.00
8172;DHT22;4127;47.908;10.850;2023-06-10T17:52:41;21.20;96.50
8172;DHT22;4127;47.908;10.850;2023-06-10T17:55:08;21.30;96.50
8172;DHT22;4127;47.908;10.850;2023-06-10T17:57:35;21.20;97.30
8172;DHT22;4127;47.908;10.850;2023-06-10T18:00:02;21.30;96.70
8172;DHT22;4127;47.908;10.850;2023-06-10T18:02:29;21.30;97.00
8172;DHT22;4127;47.908;10.850;2023-06-10T18:04:56;21.20;97.50
8172;DHT22;4127;47.908;10.850;2023-06-10T18:07:23;21.30;97.80
8172;DHT22;4127;47.908;10.850;2023-06-10T18:09:50;21.20;98.30
8172;DHT22;4127;47.908;10.850;2023-06-10T18:12:16;21.10;98.70
8172;DHT22;4127;47.908;10.850;2023-06-10T18:14:44;21.10;99.20
8172;DHT22;4127;47.908;10.850;2023-06-10T18:17:11;21.00;99.20
8172;DHT22;4127;47.908;10.850;2023-06-10T18:19:37;21.00;99.40
8172;DHT22;4127;47.908;10.850;2023-06-10T18:22:06;20.90;99.70
8172;DHT22;4127;47.908;10.850;2023-06-10T18:24:33;20.90;99.90
8172;DHT22;4127;47.908;10.850;2023-06-10T18:27:00;20.80;99.90
8172;DHT22;4127;47.908;10.850;2023-06-10T18:29:27;20.60;99.90
8172;DHT22;4127;47.908;10.850;2023-06-10T18:31:55;20.50;99.90
8172;DHT22;4127;47.908;10.850;2023-06-10T18:34:22;20.50;99.90
8172;DHT22;4127;47.908;10.850;2023-06-10T18:36:49;20.30;99.90
8172;DHT22;4127;47.908;10.850;2023-06-10T18:39:15;20.40;99.90
8172;DHT22;4127;47.908;10.850;2023-06-10T18:41:42;20.30;99.90
8172;DHT22;4127;47.908;10.850;2023-06-10T18:44:10;20.30;99.90
8172;DHT22;4127;47.908;10.850;2023-06-10T18:46:37;20.20;99.90
8172;DHT22;4127;47.908;10.850;2023-06-10T18:49:04;20.20;99.90
8172;DHT22;4127;47.908;10.850;2023-06-10T18:51:31;20.10;99.90
8172;DHT22;4127;47.908;10.850;2023-06-10T18:53:57;20.00;99.90
8172;DHT22;4127;47.908;10.850;2023-06-10T18:56:24;19.90;99.90
8172;DHT22;4127;47.908;10.850;2023-06-10T18:58:51;19.80;99.90
8172;DHT22;4127;47.908;10.850;2023-06-10T19:01:20;19.70;99.90
8172;DHT22;4127;47.908;10.850;2023-06-10T19:03:47;19.60;99.90
8172;DHT22;4127;47.908;10.850;2023-06-10T19:06:14;19.50;99.90
8172;DHT22;4127;47.908;10.850;2023-06-10T19:08:41;19.50;99.90
8172;DHT22;4127;47.908;10.850;2023-06-10T19:11:08;19.50;99.90
8172;DHT22;4127;47.908;10.850;2023-06-10T19:13:35;19.40;99.90
8172;DHT22;4127;47.908;10.850;2023-06-10T19:16:02;19.40;99.90
8172;DHT22;4127;47.908;10.850;2023-06-10T19:18:30;19.40;99.90
8172;DHT22;4127;47.908;10.850;2023-06-10T19:20:57;19.30;99.90
8172;DHT22;4127;47.908;10.850;2023-06-10T19:23:24;19.30;99.90
8172;DHT22;4127;47.908;10.850;2023-06-10T19:25:51;19.10;99.90
8172;DHT22;4127;47.908;10.850;2023-06-10T19:28:18;19.00;99.90
8172;DHT22;4127;47.908;10.850;2023-06-10T19:30:45;19.00;99.90
8172;DHT22;4127;47.908;10.850;2023-06-10T19:33:12;18.90;99.90
8172;DHT22;4127;47.908;10.850;2023-06-10T19:35:39;18.90;99.90
8172;DHT22;4127;47.908;10.850;2023-06-10T19:38:07;19.00;99.90
8172;DHT22;4127;47.908;10.850;2023-06-10T19:40:34;19.00;99.90
8172;DHT22;4127;47.908;10.850;2023-06-10T19:43:01;19.10;99.90
8172;DHT22;4127;47.908;10.850;2023-06-10T19:45:28;19.00;99.90
8172;DHT22;4127;47.908;10.850;2023-06-10T19:47:55;18.90;99.90
8172;DHT22;4127;47.908;10.850;2023-06-10T19:50:22;18.70;99.90
8172;DHT22;4127;47.908;10.850;2023-06-10T19:52:49;18.40;99.90
8172;DHT22;4127;47.908;10.850;2023-06-10T19:55:16;18.40;99.90
8172;DHT22;4127;47.908;10.850;2023-06-10T19:57:43;18.40;99.90
8172;DHT22;4127;47.908;10.850;2023-06-10T20:00:11;18.60;99.90
8172;DHT22;4127;47.908;10.850;2023-06-10T20:02:38;18.80;99.90
8172;DHT22;4127;47.908;10.850;2023-06-10T20:05:05;18.90;99.90
8172;DHT22;4127;47.908;10.850;2023-06-10T20:07:32;19.00;99.90
8172;DHT22;4127;47.908;10.850;2023-06-10T20:10:00;19.10;99.90
8172;DHT22;4127;47.908;10.850;2023-06-10T20:12:27;19.00;99.90
8172;DHT22;4127;47.908;10.850;2023-06-10T20:14:54;18.80;99.90
8172;DHT22;4127;47.908;10.850;2023-06-10T20:17:21;18.70;99.90
8172;DHT22;4127;47.908;10.850;2023-06-10T20:19:48;18.70;99.90
8172;DHT22;4127;47.908;10.850;2023-06-10T20:22:20;18.70;99.90
8172;DHT22;4127;47.908;10.850;2023-06-10T20:24:49;18.80;99.90
8172;DHT22;4127;47.908;10.850;2023-06-10T20:27:16;18.80;99.90
8172;DHT22;4127;47.908;10.850;2023-06-10T20:29:43;18.80;99.90
8172;DHT22;4127;47.908;10.850;2023-06-10T20:32:10;18.80;99.90
8172;DHT22;4127;47.908;10.850;2023-06-10T20:37:26;18.70;99.90
8172;DHT22;4127;47.908;10.850;2023-06-10T20:39:53;18.60;99.90
8172;DHT22;4127;47.908;10.850;2023-06-10T20:42:20;18.50;99.90
